sim
Sign-in with your pilot id or email,
or register
Callsign
Passwort

Schedule Details

Flight Number: OEO8303
Departure: Stuttgart Airport (EDDS) at 09:15
Arrival: Munich Airport (EDDM) at 10:25

Weather Information
Getting current METAR information for EDDS 240550Z 25003KT 170V310 9999 FEW023 16/12 Q1008 NOSIG
Getting current METAR information for EDDM 240550Z 00000KT CAVOK 10/09 Q1009 BECMG 26008KT

Schedule Frequency

Route Map